createdAt,value
2022-09-28T00:01:18.030Z,11.16
2022-09-28T00:03:46.851Z,11.24
2022-09-28T00:06:16.526Z,10.63
2022-09-28T00:08:44.820Z,11.28
2022-09-28T00:11:15.656Z,11.09
2022-09-28T00:13:44.204Z,11.11
2022-09-28T00:16:14.567Z,10.98
2022-09-28T00:18:43.141Z,11.17
2022-09-28T00:21:19.665Z,11.27
2022-09-28T00:24:06.900Z,10.90
2022-09-28T00:26:35.249Z,11.10
2022-09-28T00:29:03.761Z,10.98
2022-09-28T00:31:33.217Z,10.55
2022-09-28T00:34:02.127Z,10.69
2022-09-28T00:36:31.396Z,10.64
2022-09-28T00:38:59.904Z,10.69
2022-09-28T00:41:28.482Z,10.67
2022-09-28T00:44:27.428Z,10.95
2022-09-28T00:47:08.256Z,10.58
2022-09-28T00:49:44.703Z,10.79
2022-09-28T00:52:15.390Z,10.81
2022-09-28T00:54:44.058Z,10.79
2022-09-28T00:57:12.360Z,10.86
2022-09-28T00:59:40.700Z,10.96
2022-09-28T01:02:10.791Z,10.97
2022-09-28T01:04:39.198Z,11.29
2022-09-28T01:07:09.093Z,11.20
2022-09-28T01:09:39.375Z,11.24
2022-09-28T01:12:08.654Z,11.25
2022-09-28T01:14:36.852Z,11.03
2022-09-28T01:17:09.173Z,11.29
2022-09-28T01:20:05.917Z,10.70
2022-09-28T01:23:01.761Z,10.42
2022-09-28T01:25:56.560Z,10.74
2022-09-28T01:28:27.194Z,10.17
2022-09-28T01:30:55.275Z,10.29
2022-09-28T01:33:26.660Z,10.44
2022-09-28T01:36:00.386Z,10.58
2022-09-28T01:38:34.581Z,10.12
2022-09-28T01:41:02.894Z,10.15
2022-09-28T01:43:31.557Z,10.00
2022-09-28T01:46:07.371Z,9.82
2022-09-28T01:48:59.435Z,9.62
2022-09-28T01:51:51.543Z,10.02
2022-09-28T01:54:47.796Z,9.89
2022-09-28T01:57:20.892Z,9.85
2022-09-28T02:00:04.804Z,10.65
2022-09-28T02:03:05.924Z,10.12
2022-09-28T02:05:51.625Z,9.86
2022-09-28T02:08:27.179Z,9.98
2022-09-28T02:11:18.623Z,9.83
2022-09-28T02:13:54.547Z,9.57
2022-09-28T02:16:31.518Z,9.37
2022-09-28T02:18:59.926Z,9.82
2022-09-28T02:21:47.345Z,9.85
2022-09-28T02:24:39.858Z,9.80
2022-09-28T02:27:20.013Z,10.14
2022-09-28T02:29:49.224Z,10.17
2022-09-28T02:32:17.738Z,10.34
2022-09-28T02:34:46.121Z,10.49
2022-09-28T02:37:14.369Z,10.36
2022-09-28T02:39:42.664Z,10.00
2022-09-28T02:42:20.013Z,10.25
2022-09-28T02:45:14.641Z,10.20
2022-09-28T02:48:13.891Z,10.07
2022-09-28T02:51:15.224Z,10.44
2022-09-28T02:54:18.954Z,9.76
2022-09-28T02:56:53.231Z,10.10
2022-09-28T02:59:44.526Z,10.20
2022-09-28T03:02:48.288Z,10.57
2022-09-28T03:05:23.442Z,10.28
2022-09-28T03:08:20.232Z,10.37
2022-09-28T03:10:52.001Z,10.29
2022-09-28T03:13:20.972Z,10.65
2022-09-28T03:15:49.555Z,10.63
2022-09-28T03:18:19.286Z,10.58
2022-09-28T03:20:47.758Z,11.22
2022-09-28T03:23:31.223Z,10.98
2022-09-28T03:25:59.901Z,10.23
2022-09-28T03:28:28.406Z,10.79
2022-09-28T03:30:57.054Z,10.13
2022-09-28T03:33:25.541Z,10.81
2022-09-28T03:35:53.893Z,10.99
2022-09-28T03:38:22.221Z,10.96
2022-09-28T03:40:57.608Z,10.90
2022-09-28T03:43:26.915Z,10.93
2022-09-28T03:46:02.019Z,10.86
2022-09-28T03:48:34.478Z,10.79
2022-09-28T03:51:04.723Z,10.56
2022-09-28T03:53:33.475Z,10.73
2022-09-28T03:56:12.417Z,10.51
2022-09-28T03:58:41.357Z,10.75
2022-09-28T04:01:16.985Z,10.65
2022-09-28T04:03:47.435Z,10.59
2022-09-28T04:06:15.756Z,10.45
2022-09-28T04:08:44.002Z,10.14
2022-09-28T04:11:12.664Z,9.62
2022-09-28T04:13:41.466Z,9.47
2022-09-28T04:16:12.439Z,9.80
2022-09-28T04:18:44.718Z,9.07
2022-09-28T04:21:37.136Z,9.42
2022-09-28T04:24:11.273Z,9.20
2022-09-28T04:26:39.535Z,9.30
2022-09-28T04:29:16.568Z,9.29
2022-09-28T04:32:13.988Z,8.94
2022-09-28T04:34:44.352Z,9.87
2022-09-28T04:37:13.593Z,9.73
2022-09-28T04:39:45.095Z,10.41
2022-09-28T04:42:19.816Z,10.28
2022-09-28T04:44:50.505Z,10.44
2022-09-28T04:47:18.819Z,10.26
2022-09-28T04:50:06.150Z,9.97
2022-09-28T04:52:37.885Z,10.56
2022-09-28T04:55:06.930Z,10.28
2022-09-28T04:57:36.281Z,10.67
2022-09-28T05:00:05.542Z,10.63
2022-09-28T05:02:36.509Z,9.86
2022-09-28T05:05:46.077Z,10.19
2022-09-28T05:08:30.764Z,10.87
2022-09-28T05:11:00.516Z,11.06
2022-09-28T05:13:30.497Z,11.21
2022-09-28T05:16:03.058Z,11.60
2022-09-28T05:18:36.234Z,11.23
2022-09-28T05:21:13.266Z,11.06
2022-09-28T05:23:46.506Z,11.32
2022-09-28T05:26:15.423Z,11.79
2022-09-28T05:28:45.278Z,11.70
2022-09-28T05:31:42.634Z,12.07
2022-09-28T05:34:18.988Z,12.08
2022-09-28T05:36:47.545Z,12.12
2022-09-28T05:39:15.884Z,12.31
2022-09-28T05:41:44.255Z,12.13
2022-09-28T05:44:12.949Z,12.46
2022-09-28T05:46:41.395Z,12.50
2022-09-28T05:49:11.397Z,12.74
2022-09-28T05:51:40.495Z,12.44
2022-09-28T05:54:10.357Z,12.66
2022-09-28T05:56:42.888Z,12.71
2022-09-28T05:59:12.359Z,13.09
2022-09-28T06:01:41.340Z,13.20
2022-09-28T06:04:11.815Z,13.39
2022-09-28T06:06:43.432Z,13.55
2022-09-28T06:09:11.788Z,13.46
2022-09-28T06:11:42.765Z,13.56
2022-09-28T06:14:25.243Z,13.84
2022-09-28T06:16:54.482Z,13.99
2022-09-28T06:19:24.017Z,14.02
2022-09-28T06:22:09.325Z,14.33
2022-09-28T06:24:46.053Z,14.47
2022-09-28T06:27:14.494Z,14.52
2022-09-28T06:29:43.583Z,14.58
2022-09-28T06:32:14.608Z,15.18
2022-09-28T06:34:44.875Z,15.03
2022-09-28T06:37:13.349Z,14.99
2022-09-28T06:39:41.722Z,15.14
2022-09-28T06:42:10.609Z,15.22
2022-09-28T06:45:05.509Z,14.98
2022-09-28T06:48:00.386Z,15.57
2022-09-28T06:50:40.951Z,15.53
2022-09-28T06:53:36.100Z,15.36
2022-09-28T06:56:11.991Z,16.10
2022-09-28T06:58:40.403Z,16.15
2022-09-28T07:01:09.639Z,15.90
2022-09-28T07:03:47.029Z,16.26
2022-09-28T07:06:18.780Z,16.33
2022-09-28T07:09:32.389Z,16.08
2022-09-28T07:12:28.376Z,16.18
2022-09-28T07:15:01.779Z,16.45
2022-09-28T07:17:30.587Z,16.41
2022-09-28T07:20:17.429Z,16.84
2022-09-28T07:22:48.604Z,17.25
2022-09-28T07:25:22.075Z,17.16
2022-09-28T07:28:28.260Z,17.71
2022-09-28T07:31:25.823Z,17.72
2022-09-28T07:34:23.807Z,17.75
2022-09-28T07:37:14.096Z,18.17
2022-09-28T07:40:01.228Z,18.00
2022-09-28T07:42:32.166Z,18.14
2022-09-28T07:45:00.539Z,17.75
2022-09-28T07:47:34.671Z,18.52
2022-09-28T07:50:22.234Z,18.46
2022-09-28T07:52:57.922Z,18.81
2022-09-28T07:55:42.038Z,18.82
2022-09-28T07:58:17.338Z,18.41
2022-09-28T08:01:07.887Z,18.49
2022-09-28T08:03:37.003Z,18.83
2022-09-28T08:06:12.860Z,18.68
2022-09-28T08:08:45.003Z,18.73
2022-09-28T08:11:17.457Z,19.06
2022-09-28T08:14:06.193Z,19.10
2022-09-28T08:17:04.769Z,19.05
2022-09-28T08:20:14.206Z,19.48
2022-09-28T08:22:43.464Z,19.28
2022-09-28T08:25:12.633Z,19.40
2022-09-28T08:27:41.100Z,19.22
2022-09-28T08:30:10.203Z,19.60
2022-09-28T08:32:39.143Z,20.04
2022-09-28T08:35:30.727Z,19.69
2022-09-28T08:38:19.548Z,19.13
2022-09-28T08:41:37.084Z,18.89
2022-09-28T08:44:30.227Z,19.50
2022-09-28T08:47:40.887Z,19.21
2022-09-28T08:50:28.750Z,19.26
2022-09-28T08:53:38.291Z,18.51
2022-09-28T08:56:32.113Z,19.09
2022-09-28T08:59:22.620Z,18.75
2022-09-28T09:02:03.981Z,19.41
2022-09-28T09:04:34.588Z,19.59
2022-09-28T09:07:45.114Z,19.69
2022-09-28T09:10:50.310Z,18.75
2022-09-28T09:13:49.575Z,19.25
2022-09-28T09:16:26.339Z,19.44
2022-09-28T09:19:51.476Z,19.02
2022-09-28T09:22:39.444Z,19.87
2022-09-28T09:25:19.692Z,19.27
2022-09-28T09:27:53.811Z,19.63
2022-09-28T09:30:30.511Z,19.67
2022-09-28T09:33:31.103Z,19.47
2022-09-28T09:36:35.245Z,19.26
2022-09-28T09:40:05.725Z,19.98
2022-09-28T09:43:27.973Z,20.55
2022-09-28T09:46:42.138Z,20.39
2022-09-28T09:49:26.818Z,19.97
2022-09-28T09:52:07.440Z,20.66
2022-09-28T09:54:38.424Z,20.44
2022-09-28T09:57:17.966Z,20.68
2022-09-28T09:59:51.968Z,20.94
2022-09-28T10:02:29.516Z,21.03
2022-09-28T10:05:12.289Z,20.55
2022-09-28T10:08:06.834Z,21.24
2022-09-28T10:10:56.869Z,21.43
2022-09-28T10:13:29.592Z,21.12
2022-09-28T10:16:01.656Z,21.02
2022-09-28T10:18:43.555Z,20.96
2022-09-28T10:21:32.773Z,20.51
2022-09-28T10:24:08.891Z,20.56
2022-09-28T10:26:41.137Z,21.15
2022-09-28T10:29:17.914Z,21.44
2022-09-28T10:31:50.527Z,21.72
2022-09-28T10:34:28.917Z,20.91
2022-09-28T10:37:03.849Z,21.00
2022-09-28T10:40:06.344Z,20.99
2022-09-28T10:42:36.608Z,21.01
2022-09-28T10:45:14.646Z,21.41
2022-09-28T10:47:44.889Z,21.75
2022-09-28T10:50:24.109Z,21.67
2022-09-28T10:53:20.299Z,22.13
2022-09-28T10:56:22.568Z,22.28
2022-09-28T10:59:00.805Z,21.76
2022-09-28T11:01:44.920Z,21.60
2022-09-28T11:04:19.572Z,21.42
2022-09-28T11:06:48.134Z,21.45
2022-09-28T11:09:39.614Z,21.60
2022-09-28T11:12:18.667Z,22.37
2022-09-28T11:14:47.564Z,21.17
2022-09-28T11:17:26.761Z,22.02
2022-09-28T11:19:59.683Z,21.16
2022-09-28T11:22:34.364Z,21.42
2022-09-28T11:25:24.687Z,21.90
2022-09-28T11:27:52.953Z,21.80
2022-09-28T11:30:28.067Z,21.51
2022-09-28T11:33:42.766Z,22.34
2022-09-28T11:36:49.828Z,22.15
2022-09-28T11:39:38.156Z,22.18
2022-09-28T11:42:32.769Z,23.02
2022-09-28T11:45:31.020Z,21.93
2022-09-28T11:48:06.484Z,22.52
2022-09-28T11:50:51.754Z,23.04
2022-09-28T11:53:27.937Z,22.90
2022-09-28T11:56:16.801Z,23.24
2022-09-28T11:58:47.519Z,22.18
2022-09-28T12:01:31.345Z,22.79
2022-09-28T12:04:38.517Z,22.17
2022-09-28T12:07:12.662Z,22.90
2022-09-28T12:09:50.850Z,22.87
2022-09-28T12:12:43.847Z,22.47
2022-09-28T12:15:20.410Z,22.86
2022-09-28T12:17:53.413Z,23.07
2022-09-28T12:22:56.042Z,22.92
2022-09-28T12:25:24.466Z,23.04
2022-09-28T12:28:00.439Z,22.95
2022-09-28T12:30:31.378Z,22.93
2022-09-28T12:33:12.602Z,23.15
2022-09-28T12:36:07.736Z,23.36
2022-09-28T12:39:17.708Z,23.43
2022-09-28T12:42:11.288Z,23.38
2022-09-28T12:44:54.751Z,23.12
2022-09-28T12:47:44.884Z,23.27
2022-09-28T12:50:39.924Z,23.21
2022-09-28T12:53:09.087Z,23.12
2022-09-28T12:55:56.629Z,22.88
2022-09-28T12:58:48.929Z,23.21
2022-09-28T13:01:23.026Z,23.32
2022-09-28T13:04:17.226Z,23.24
2022-09-28T13:07:22.531Z,23.22
2022-09-28T13:10:03.475Z,22.78
2022-09-28T13:12:40.856Z,22.81
2022-09-28T13:15:47.094Z,22.34
2022-09-28T13:18:41.512Z,23.09
2022-09-28T13:21:18.980Z,23.32
2022-09-28T13:23:47.674Z,23.33
2022-09-28T13:26:29.006Z,23.22
2022-09-28T13:31:34.037Z,22.87
2022-09-28T13:34:04.882Z,22.48
2022-09-28T13:36:33.275Z,22.74
2022-09-28T13:39:01.618Z,22.97
2022-09-28T13:41:37.326Z,22.63
2022-09-28T13:44:12.630Z,22.35
2022-09-28T13:46:52.985Z,22.81
2022-09-28T13:49:25.189Z,22.46
2022-09-28T13:52:05.774Z,22.88
2022-09-28T13:55:00.291Z,22.95
2022-09-28T13:57:58.320Z,22.87
2022-09-28T14:00:43.663Z,22.62
2022-09-28T14:03:28.355Z,22.52
2022-09-28T14:06:08.392Z,22.43
2022-09-28T14:09:03.990Z,22.32
2022-09-28T14:11:35.583Z,22.58
2022-09-28T14:14:14.030Z,22.53
2022-09-28T14:16:42.691Z,22.54
2022-09-28T14:19:24.632Z,22.68
2022-09-28T14:22:23.785Z,22.45
2022-09-28T14:25:12.750Z,22.58
2022-09-28T14:28:05.189Z,22.40
2022-09-28T14:30:42.804Z,22.27
2022-09-28T14:33:24.666Z,22.14
2022-09-28T14:35:58.851Z,22.29
2022-09-28T14:39:13.329Z,22.13
2022-09-28T14:41:42.230Z,22.05
2022-09-28T14:44:16.789Z,22.42
2022-09-28T14:46:46.172Z,22.70
2022-09-28T14:49:17.845Z,22.23
2022-09-28T14:51:48.941Z,21.98
2022-09-28T14:54:24.683Z,22.12
2022-09-28T14:56:53.043Z,22.00
2022-09-28T14:59:36.414Z,21.38
2022-09-28T15:02:17.209Z,21.59
2022-09-28T15:04:56.150Z,21.60
2022-09-28T15:07:29.955Z,21.57
2022-09-28T15:09:58.837Z,21.51
2022-09-28T15:12:28.668Z,21.40
2022-09-28T15:15:05.282Z,21.47
2022-09-28T15:17:39.472Z,21.47
2022-09-28T15:20:50.470Z,21.17
2022-09-28T15:23:30.824Z,21.14
2022-09-28T15:25:59.783Z,20.64
2022-09-28T15:28:28.251Z,20.79
2022-09-28T15:31:03.631Z,21.24
2022-09-28T15:34:10.591Z,21.03
2022-09-28T15:36:42.685Z,20.99
2022-09-28T15:39:31.162Z,20.79
2022-09-28T15:42:00.891Z,20.66
2022-09-28T15:44:38.342Z,20.30
2022-09-28T15:47:15.504Z,20.15
2022-09-28T15:50:01.432Z,20.26
2022-09-28T15:52:41.236Z,20.39
2022-09-28T15:55:26.424Z,20.44
2022-09-28T15:58:15.952Z,20.25
2022-09-28T16:00:48.528Z,20.26
2022-09-28T16:03:24.576Z,19.89
2022-09-28T16:06:06.183Z,19.76
2022-09-28T16:08:44.844Z,20.15
2022-09-28T16:11:20.904Z,19.95
2022-09-28T16:14:06.436Z,20.24
2022-09-28T16:16:43.365Z,20.31
2022-09-28T16:19:26.211Z,20.35
2022-09-28T16:21:58.894Z,20.15
2022-09-28T16:24:29.903Z,20.15
2022-09-28T16:27:02.639Z,19.69
2022-09-28T16:29:40.371Z,19.92
2022-09-28T16:32:27.336Z,19.63
2022-09-28T16:35:13.361Z,19.71
2022-09-28T16:37:42.957Z,19.45
2022-09-28T16:40:11.946Z,19.30
2022-09-28T16:42:48.798Z,19.35
2022-09-28T16:45:21.970Z,19.46
2022-09-28T16:47:56.654Z,19.04
2022-09-28T16:50:26.084Z,18.69
2022-09-28T16:53:24.820Z,18.79
2022-09-28T16:55:53.322Z,18.64
2022-09-28T16:58:22.583Z,18.59
2022-09-28T17:00:53.390Z,18.69
2022-09-28T17:03:24.753Z,18.78
2022-09-28T17:05:54.218Z,19.01
2022-09-28T17:08:24.484Z,18.99
2022-09-28T17:11:16.610Z,18.75
2022-09-28T17:13:45.221Z,18.59
2022-09-28T17:16:37.118Z,18.58
2022-09-28T17:19:20.582Z,18.46
2022-09-28T17:21:49.471Z,18.28
2022-09-28T17:24:22.327Z,18.38
2022-09-28T17:26:55.206Z,18.50
2022-09-28T17:29:23.945Z,17.93
2022-09-28T17:31:54.175Z,18.06
2022-09-28T17:34:25.088Z,17.92
2022-09-28T17:36:57.362Z,17.89
2022-09-28T17:39:29.185Z,17.79
2022-09-28T17:42:01.328Z,17.51
2022-09-28T17:44:31.953Z,17.35
2022-09-28T17:47:09.443Z,17.57
2022-09-28T17:49:38.849Z,17.66
2022-09-28T17:52:10.413Z,17.84
2022-09-28T17:54:39.227Z,17.75
2022-09-28T17:57:10.962Z,17.19
2022-09-28T17:59:42.630Z,17.49
2022-09-28T18:02:11.950Z,17.52
2022-09-28T18:04:51.696Z,17.53
2022-09-28T18:07:21.219Z,17.28
2022-09-28T18:09:56.912Z,17.29
2022-09-28T18:12:27.150Z,16.95
2022-09-28T18:14:57.035Z,16.34
2022-09-28T18:17:25.375Z,16.85
2022-09-28T18:20:16.389Z,16.95
2022-09-28T18:22:51.947Z,17.18
2022-09-28T18:25:26.934Z,17.11
2022-09-28T18:28:00.579Z,16.39
2022-09-28T18:30:29.374Z,15.77
2022-09-28T18:33:23.291Z,15.76
2022-09-28T18:35:56.425Z,16.57
2022-09-28T18:38:25.358Z,16.33
2022-09-28T18:40:56.760Z,16.71
2022-09-28T18:43:26.555Z,16.74
2022-09-28T18:45:59.274Z,16.63
2022-09-28T18:48:37.812Z,16.48
2022-09-28T18:51:09.789Z,16.63
2022-09-28T18:53:40.967Z,16.78
2022-09-28T18:56:11.910Z,16.67
2022-09-28T18:58:46.173Z,16.79
2022-09-28T19:01:32.090Z,16.43
2022-09-28T19:04:02.616Z,16.56
2022-09-28T19:06:32.567Z,16.57
2022-09-28T19:09:09.178Z,16.60
2022-09-28T19:11:37.928Z,16.37
2022-09-28T19:14:06.454Z,16.60
2022-09-28T19:16:35.790Z,16.41
2022-09-28T19:19:09.474Z,16.52
2022-09-28T19:21:38.002Z,16.22
2022-09-28T19:24:06.605Z,16.34
2022-09-28T19:26:35.564Z,16.56
2022-09-28T19:29:03.973Z,16.46
2022-09-28T19:31:32.943Z,16.39
2022-09-28T19:34:10.472Z,15.82
2022-09-28T19:36:45.328Z,15.71
2022-09-28T19:39:20.791Z,15.96
2022-09-28T19:41:52.579Z,16.29
2022-09-28T19:44:25.548Z,16.08
2022-09-28T19:47:01.129Z,15.79
2022-09-28T19:49:33.511Z,15.79
2022-09-28T19:52:12.728Z,15.58
2022-09-28T19:54:48.649Z,15.70
2022-09-28T19:57:20.013Z,15.61
2022-09-28T19:59:52.137Z,15.94
2022-09-28T20:02:21.408Z,15.41
2022-09-28T20:04:49.820Z,15.44
2022-09-28T20:07:18.224Z,15.66
2022-09-28T20:09:48.531Z,15.64
2022-09-28T20:12:19.057Z,15.93
2022-09-28T20:14:47.437Z,15.72
2022-09-28T20:17:15.763Z,15.65
2022-09-28T20:19:46.677Z,15.57
2022-09-28T20:22:16.756Z,15.76
2022-09-28T20:24:44.979Z,15.82
2022-09-28T20:27:13.345Z,15.51
2022-09-28T20:29:43.248Z,15.80
2022-09-28T20:32:11.874Z,14.89
2022-09-28T20:34:40.098Z,15.45
2022-09-28T20:37:08.491Z,15.30
2022-09-28T20:39:39.392Z,15.51
2022-09-28T20:42:09.792Z,15.30
2022-09-28T20:44:38.360Z,15.12
2022-09-28T20:47:06.683Z,15.45
2022-09-28T20:49:35.090Z,15.61
2022-09-28T20:52:03.474Z,15.62
2022-09-28T20:54:31.779Z,14.59
2022-09-28T20:57:00.294Z,14.82
2022-09-28T20:59:28.977Z,15.39
2022-09-28T21:01:57.365Z,15.25
2022-09-28T21:04:26.139Z,15.16
2022-09-28T21:06:54.561Z,15.27
2022-09-28T21:09:22.792Z,14.52
2022-09-28T21:11:51.117Z,14.89
2022-09-28T21:14:19.623Z,14.67
2022-09-28T21:16:48.277Z,14.99
2022-09-28T21:19:16.616Z,15.02
2022-09-28T21:21:44.875Z,15.05
2022-09-28T21:24:13.357Z,15.16
2022-09-28T21:26:41.856Z,14.93
2022-09-28T21:29:14.139Z,15.06
2022-09-28T21:31:47.494Z,14.85
2022-09-28T21:34:20.985Z,14.67
2022-09-28T21:36:51.597Z,14.98
2022-09-28T21:39:20.409Z,14.40
2022-09-28T21:41:48.790Z,14.19
2022-09-28T21:44:17.205Z,12.93
2022-09-28T21:46:45.653Z,13.16
2022-09-28T21:49:14.600Z,13.32
2022-09-28T21:51:42.881Z,13.71
2022-09-28T21:54:12.238Z,14.15
2022-09-28T21:56:40.785Z,13.94
2022-09-28T21:59:09.084Z,14.00
2022-09-28T22:01:37.511Z,14.07
2022-09-28T22:04:06.175Z,13.28
2022-09-28T22:06:35.292Z,14.02
2022-09-28T22:09:03.680Z,13.68
2022-09-28T22:11:31.948Z,13.54
2022-09-28T22:14:00.379Z,13.85
2022-09-28T22:16:29.843Z,12.30
2022-09-28T22:18:58.754Z,13.45
2022-09-28T22:21:28.669Z,13.24
2022-09-28T22:24:01.364Z,13.62
2022-09-28T22:26:30.538Z,13.57
2022-09-28T22:29:04.415Z,13.79
2022-09-28T22:31:39.365Z,12.94
2022-09-28T22:34:07.903Z,13.42
2022-09-28T22:36:36.285Z,12.11
2022-09-28T22:39:04.944Z,13.23
2022-09-28T22:41:33.344Z,13.37
2022-09-28T22:44:02.010Z,13.00
2022-09-28T22:46:32.340Z,12.79
2022-09-28T22:49:01.037Z,12.36
2022-09-28T22:51:29.839Z,11.79
2022-09-28T22:53:58.204Z,11.88
2022-09-28T22:56:26.522Z,12.49
2022-09-28T22:58:54.947Z,12.20
2022-09-28T23:01:24.974Z,12.83
2022-09-28T23:03:53.503Z,12.80
2022-09-28T23:06:22.969Z,12.57
2022-09-28T23:08:51.754Z,13.09
2022-09-28T23:11:20.078Z,13.32
2022-09-28T23:13:55.713Z,13.58
2022-09-28T23:16:25.865Z,13.42
2022-09-28T23:18:55.158Z,13.50
2022-09-28T23:21:24.865Z,13.69
2022-09-28T23:23:54.921Z,13.47
2022-09-28T23:26:28.265Z,13.62
2022-09-28T23:28:56.692Z,13.82
2022-09-28T23:31:29.559Z,13.99
2022-09-28T23:34:07.350Z,14.11
2022-09-28T23:36:36.164Z,13.40
2022-09-28T23:39:04.565Z,13.77
2022-09-28T23:41:32.797Z,12.99
2022-09-28T23:44:01.086Z,13.49
2022-09-28T23:46:29.426Z,13.35
2022-09-28T23:48:57.660Z,13.65
2022-09-28T23:51:25.929Z,13.49
2022-09-28T23:53:54.189Z,13.50
2022-09-28T23:56:22.463Z,13.49
2022-09-28T23:58:51.744Z,13.54
